Time;durP1;ratioP1;P1;durP2;ratioP2;P2;SDS_P1;SDS_P2;PMS_P1;PMS_P2;Temp;Humidity;BMP_temperature;BMP_pressure;BME280_temperature;BME280_humidity;BME280_pressure;Samples;Min_cycle;Max_cycle;Signal;HPM_P1;HPM_P2
2022/03/13 00:00:16;;;;;;;11.10;6.80;;;;;;;0.67;60.12;101444.88;5053901;28;20234;-74
2022/03/13 00:02:45;;;;;;;4.60;4.20;;;;;;;0.59;61.07;101445.94;5034560;28;20196;-74
2022/03/13 00:05:16;;;;;;;17.13;9.90;;;;;;;0.65;61.20;101444.75;5052709;28;20681;-73
2022/03/13 00:07:44;;;;;;;27.40;10.50;;;;;;;0.49;62.00;101435.06;5063261;28;20200;-73
2022/03/13 00:10:11;;;;;;;29.10;12.80;;;;;;;0.50;61.54;101436.81;5058422;28;20200;-73
2022/03/13 00:12:38;;;;;;;7.80;5.60;;;;;;;0.43;61.72;101433.66;5055683;28;20795;-73
2022/03/13 00:15:12;;;;;;;6.70;5.00;;;;;;;0.50;62.41;101426.59;5057707;28;20195;-73
2022/03/13 00:17:39;;;;;;;4.53;4.13;;;;;;;0.42;62.35;101417.50;5058621;28;20273;-73
2022/03/13 00:20:08;;;;;;;7.70;5.23;;;;;;;0.45;61.97;101422.84;5068477;28;20218;-73
2022/03/13 00:22:37;;;;;;;9.03;6.13;;;;;;;0.45;62.86;101427.03;5047551;28;20650;-73
2022/03/13 00:25:08;;;;;;;8.30;3.80;;;;;;;0.44;63.56;101420.16;5053047;28;20199;-73
2022/03/13 00:27:35;;;;;;;5.47;4.77;;;;;;;0.37;63.64;101413.69;5062727;28;20222;-73
2022/03/13 00:30:02;;;;;;;3.70;3.33;;;;;;;0.38;63.33;101410.38;5057212;28;20199;-73
2022/03/13 00:32:29;;;;;;;21.07;10.57;;;;;;;0.37;63.08;101413.69;5064821;28;20188;-73
2022/03/13 00:34:56;;;;;;;8.43;5.50;;;;;;;0.27;63.62;101401.03;5057986;28;20183;-72
2022/03/13 00:37:23;;;;;;;7.63;3.57;;;;;;;0.36;63.30;101396.59;5073028;28;20662;-74
2022/03/13 00:39:51;;;;;;;5.70;5.03;;;;;;;0.31;63.24;101403.03;5058686;28;20219;-73
2022/03/13 00:42:18;;;;;;;9.07;5.53;;;;;;;-0.11;63.84;101339.41;5052428;28;20201;-72
2022/03/13 00:44:45;;;;;;;12.40;5.80;;;;;;;-0.09;63.79;101367.59;5055854;28;20241;-73
2022/03/13 00:47:12;;;;;;;7.27;4.93;;;;;;;0.16;63.78;101403.50;5066695;28;20230;-73
2022/03/13 00:49:39;;;;;;;9.37;5.10;;;;;;;0.19;63.42;101406.28;5055159;28;20194;-73
2022/03/13 00:52:06;;;;;;;10.77;5.53;;;;;;;0.19;64.21;101413.94;5063611;28;20570;-73
2022/03/13 00:54:33;;;;;;;4.03;3.37;;;;;;;-0.08;63.90;101362.63;5053037;28;20202;-73
2022/03/13 00:57:02;;;;;;;8.67;4.70;;;;;;;0.03;64.04;101378.75;5052478;28;20223;-73
2022/03/13 00:59:29;;;;;;;5.50;4.27;;;;;;;0.16;64.25;101396.75;5059836;28;20242;-72
2022/03/13 01:01:56;;;;;;;7.43;4.87;;;;;;;0.23;63.38;101398.09;5053253;28;20187;-73
2022/03/13 01:04:23;;;;;;;5.10;4.00;;;;;;;0.18;64.39;101395.19;5052277;28;20290;-73
2022/03/13 01:06:50;;;;;;;5.03;3.63;;;;;;;0.06;64.41;101403.56;5052725;28;20270;-73
2022/03/13 01:09:17;;;;;;;8.20;4.67;;;;;;;-0.08;65.16;101366.81;5063193;28;20196;-73
2022/03/13 01:11:44;;;;;;;6.40;4.83;;;;;;;0.09;65.17;101391.06;5052656;28;20631;-73
2022/03/13 01:14:13;;;;;;;5.20;4.50;;;;;;;0.10;64.04;101391.19;5068503;28;20198;-73
2022/03/13 01:16:41;;;;;;;5.13;4.40;;;;;;;-0.02;65.63;101385.13;5052196;28;20287;-72
2022/03/13 01:19:09;;;;;;;5.73;4.83;;;;;;;-0.07;65.97;101376.22;5058154;28;20237;-72
2022/03/13 01:21:38;;;;;;;7.80;3.43;;;;;;;0.09;65.92;101384.31;5069945;28;20199;-74
2022/03/13 01:24:20;;;;;;;4.60;4.03;;;;;;;0.22;64.23;101381.91;5071845;28;20294;-72
2022/03/13 01:26:53;;;;;;;5.73;4.77;;;;;;;0.29;63.09;101368.84;5057758;28;20552;-72
2022/03/13 01:29:22;;;;;;;4.83;3.57;;;;;;;0.31;63.18;101367.31;5063096;28;20196;-73
2022/03/13 01:31:49;;;;;;;6.53;4.83;;;;;;;0.35;62.30;101358.25;5059794;28;20191;-73
2022/03/13 01:34:37;;;;;;;4.63;2.90;;;;;;;0.45;61.59;101356.50;5070029;28;20187;-73
2022/03/13 01:37:04;;;;;;;5.87;3.83;;;;;;;0.53;60.66;101361.28;5071553;28;20202;-73
2022/03/13 01:39:31;;;;;;;4.60;3.23;;;;;;;0.51;60.38;101358.59;5063454;28;20226;-72
2022/03/13 01:41:58;;;;;;;5.63;4.03;;;;;;;0.43;60.22;101363.13;5050935;28;20211;-73
2022/03/13 01:44:27;;;;;;;8.33;4.20;;;;;;;0.38;60.45;101354.25;5051650;28;20194;-73
2022/03/13 01:46:55;;;;;;;6.00;4.37;;;;;;;0.46;60.53;101352.28;5055572;28;20219;-72
2022/03/13 01:49:25;;;;;;;4.47;3.97;;;;;;;0.45;59.86;101348.84;5059317;28;20195;-73
2022/03/13 01:51:51;;;;;;;2.57;2.30;;;;;;;0.56;59.91;101351.31;5070062;28;20194;-72
2022/03/13 01:54:18;;;;;;;2.40;2.20;;;;;;;0.50;59.72;101342.41;5069414;28;20191;-73
2022/03/13 01:56:45;;;;;;;5.53;4.87;;;;;;;0.41;58.82;101338.28;5070248;28;20191;-73
2022/03/13 01:59:14;;;;;;;5.30;3.57;;;;;;;0.39;59.38;101327.97;5064902;28;20195;-73
2022/03/13 02:01:43;;;;;;;2.67;2.47;;;;;;;0.49;58.56;101338.09;5051751;28;20199;-73
2022/03/13 02:04:11;;;;;;;2.43;2.00;;;;;;;0.24;58.27;101283.47;5068104;28;20222;-73
2022/03/13 02:06:39;;;;;;;11.63;6.67;;;;;;;0.52;58.05;101337.44;5071385;28;20190;-73
2022/03/13 02:09:07;;;;;;;10.47;5.60;;;;;;;0.49;58.06;101322.78;5064186;28;20194;-73
2022/03/13 02:11:37;;;;;;;27.87;11.30;;;;;;;0.58;57.23;101337.88;5066906;28;20194;-73
2022/03/13 02:14:05;;;;;;;35.43;13.13;;;;;;;0.39;57.34;101311.78;5051851;28;20635;-73
2022/03/13 02:16:32;;;;;;;10.07;3.73;;;;;;;0.57;57.52;101333.53;5071570;28;20194;-73
2022/03/13 02:19:00;;;;;;;7.57;3.20;;;;;;;0.55;57.70;101331.66;5067789;28;20237;-73
2022/03/13 02:21:31;;;;;;;3.77;2.87;;;;;;;0.55;57.54;101321.47;5070745;28;20233;-74
2022/03/13 02:24:03;;;;;;;2.27;2.10;;;;;;;0.38;57.46;101300.69;5059748;28;20673;-73
2022/03/13 02:26:33;;;;;;;5.10;4.13;;;;;;;0.50;57.54;101328.75;5052531;28;20218;-73
2022/03/13 02:29:02;;;;;;;5.23;3.00;;;;;;;0.35;57.23;101308.13;5054992;28;20191;-73
2022/03/13 02:31:31;;;;;;;3.03;2.73;;;;;;;0.55;57.11;101334.22;5066479;28;20685;-73
2022/03/13 02:33:58;;;;;;;5.57;4.07;;;;;;;0.45;57.04;101335.19;5051610;28;20206;-73
2022/03/13 02:36:41;;;;;;;4.90;3.83;;;;;;;0.57;55.85;101330.13;5051335;28;20765;-73
2022/03/13 02:39:11;;;;;;;3.77;3.47;;;;;;;0.37;56.25;101296.34;5055300;28;20697;-73
2022/03/13 02:41:40;;;;;;;4.97;4.10;;;;;;;0.44;56.35;101313.00;5065389;28;20219;-72
2022/03/13 02:44:09;;;;;;;2.30;2.10;;;;;;;0.60;55.83;101320.16;5068026;28;20198;-73
2022/03/13 02:46:58;;;;;;;7.90;3.17;;;;;;;0.68;55.78;101324.16;5066766;28;20242;-73
2022/03/13 02:49:26;;;;;;;4.40;3.70;;;;;;;0.59;55.16;101318.34;5064755;28;20192;-73
2022/03/13 02:51:55;;;;;;;8.63;3.97;;;;;;;0.59;55.04;101324.34;5056879;28;20187;-73
2022/03/13 02:54:24;;;;;;;4.27;3.87;;;;;;;0.53;55.21;101317.91;5054783;28;20187;-73
2022/03/13 02:56:51;;;;;;;3.30;3.00;;;;;;;0.42;55.08;101289.94;5063510;28;20202;-73
2022/03/13 02:59:19;;;;;;;9.53;3.13;;;;;;;0.67;55.40;101330.03;5068498;28;20245;-73
2022/03/13 03:01:45;;;;;;;4.23;3.20;;;;;;;0.40;54.89;101275.28;5054990;28;20625;-73
2022/03/13 03:04:13;;;;;;;2.00;1.90;;;;;;;0.74;54.72;101322.94;5055043;28;20196;-72
2022/03/13 03:06:51;;;;;;;4.03;3.33;;;;;;;0.70;55.08;101327.69;5056805;28;20235;-73
2022/03/13 03:09:18;;;;;;;5.80;2.87;;;;;;;0.76;54.41;101325.59;5069519;28;20190;-72
2022/03/13 03:11:47;;;;;;;5.80;4.20;;;;;;;0.49;54.52;101265.78;5053759;28;20195;-72
2022/03/13 03:14:15;;;;;;;4.27;2.80;;;;;;;0.42;55.17;101259.34;5055023;28;20219;-72
2022/03/13 03:16:42;;;;;;;3.23;2.83;;;;;;;0.81;54.21;101320.06;5054482;28;20188;-72
2022/03/13 03:19:09;;;;;;;5.53;3.10;;;;;;;0.83;54.74;101325.25;5055306;28;20194;-73
2022/03/13 03:21:37;;;;;;;5.47;4.33;;;;;;;0.72;54.50;101326.13;5054226;28;20659;-73
2022/03/13 03:24:12;;;;;;;4.13;3.83;;;;;;;0.79;54.87;101311.38;5054494;28;20195;-73
2022/03/13 03:26:39;;;;;;;6.50;4.50;;;;;;;0.64;55.34;101305.19;5066052;28;20209;-73
2022/03/13 03:29:07;;;;;;;2.50;2.30;;;;;;;0.67;55.28;101317.28;5071756;28;20664;-72
2022/03/13 03:31:39;;;;;;;3.40;3.20;;;;;;;0.66;55.11;101320.59;5055858;28;20260;-73
2022/03/13 03:34:09;;;;;;;5.57;4.17;;;;;;;0.54;54.98;101302.69;5073934;28;20191;-73
2022/03/13 03:36:40;;;;;;;5.43;4.07;;;;;;;0.62;55.64;101318.59;5074140;28;20251;-73
2022/03/13 03:39:07;;;;;;;4.07;3.10;;;;;;;0.46;55.11;101299.56;5069962;28;20205;-73
2022/03/13 03:41:35;;;;;;;4.10;3.80;;;;;;;0.79;55.15;101318.16;5053260;28;20234;-72
2022/03/13 03:44:01;;;;;;;6.30;3.73;;;;;;;0.76;54.78;101318.81;5054415;28;20287;-74
2022/03/13 03:46:30;;;;;;;4.40;4.00;;;;;;;0.84;53.82;101322.84;5062678;28;20231;-72
2022/03/13 03:48:56;;;;;;;3.77;3.47;;;;;;;0.94;54.33;101324.38;5053738;28;20692;-73
2022/03/13 03:51:23;;;;;;;4.60;4.10;;;;;;;0.98;55.04;101316.19;5054296;28;20192;-72
2022/03/13 03:53:50;;;;;;;8.20;4.83;;;;;;;0.97;54.71;101319.50;5054052;28;20192;-72
2022/03/13 03:56:17;;;;;;;6.30;4.57;;;;;;;0.94;54.64;101324.38;5054789;28;20192;-73
2022/03/13 03:58:43;;;;;;;10.63;5.33;;;;;;;0.72;55.57;101282.75;5054010;28;20192;-72
2022/03/13 04:01:10;;;;;;;9.73;5.07;;;;;;;0.53;55.86;101251.59;5071495;28;20226;-73
2022/03/13 04:03:38;;;;;;;10.60;5.97;;;;;;;0.94;55.15;101315.06;5067387;28;20203;-73
2022/03/13 04:06:05;;;;;;;10.53;6.60;;;;;;;0.75;55.16;101305.97;5053560;28;20683;-73
2022/03/13 04:08:33;;;;;;;14.67;7.07;;;;;;;0.76;54.35;101323.03;5053915;28;20260;-73
2022/03/13 04:11:01;;;;;;;16.97;7.37;;;;;;;0.82;54.61;101320.97;5065474;28;20703;-73
2022/03/13 04:13:28;;;;;;;9.83;6.13;;;;;;;0.78;54.16;101307.09;5052922;28;20322;-73
2022/03/13 04:15:55;;;;;;;6.47;4.93;;;;;;;0.91;56.33;101324.16;5053759;28;20275;-72
2022/03/13 04:18:22;;;;;;;10.27;5.60;;;;;;;0.54;55.08;101263.53;5055581;28;20195;-73
2022/03/13 04:20:51;;;;;;;7.40;5.23;;;;;;;0.94;53.85;101321.84;5063565;28;20219;-73
2022/03/13 04:23:17;;;;;;;8.83;5.97;;;;;;;0.95;54.51;101316.84;5060171;28;20723;-73
2022/03/13 04:25:44;;;;;;;7.07;4.77;;;;;;;0.89;53.97;101315.53;5053640;28;20214;-73
2022/03/13 04:28:12;;;;;;;6.57;5.00;;;;;;;0.77;53.86;101319.72;5072479;28;20199;-72
2022/03/13 04:30:39;;;;;;;7.30;4.63;;;;;;;0.86;54.46;101316.16;5059213;28;20195;-72
2022/03/13 04:33:06;;;;;;;7.70;4.83;;;;;;;0.97;53.50;101309.28;5067236;28;20191;-72
2022/03/13 04:35:33;;;;;;;7.20;4.43;;;;;;;0.89;53.82;101301.06;5073384;28;20187;-72
2022/03/13 04:38:01;;;;;;;8.60;4.73;;;;;;;0.96;53.27;101312.63;5073191;28;20205;-72
2022/03/13 04:40:28;;;;;;;7.50;4.73;;;;;;;1.02;54.24;101315.63;5059247;28;20219;-73
2022/03/13 04:42:55;;;;;;;5.90;4.67;;;;;;;0.95;54.61;101310.84;5070774;28;20195;-73
2022/03/13 04:45:22;;;;;;;5.50;4.80;;;;;;;0.79;54.47;101319.03;5055720;28;20684;-72
2022/03/13 04:47:49;;;;;;;4.40;4.00;;;;;;;0.82;54.39;101320.97;5065974;28;20206;-72
2022/03/13 04:50:16;;;;;;;4.97;4.27;;;;;;;1.02;53.92;101322.38;5060041;28;20203;-72
2022/03/13 04:52:43;;;;;;;5.57;4.00;;;;;;;1.06;53.74;101327.84;5053681;28;20195;-71
2022/03/13 04:55:11;;;;;;;6.67;5.00;;;;;;;1.11;54.17;101323.03;5052616;28;20692;-72
2022/03/13 04:57:38;;;;;;;8.67;5.20;;;;;;;1.08;55.11;101322.81;5053842;28;20192;-73
2022/03/13 05:00:06;;;;;;;8.17;5.27;;;;;;;1.07;54.61;101332.16;5057670;28;20257;-72
2022/03/13 05:02:33;;;;;;;6.07;5.17;;;;;;;1.08;54.48;101344.16;5066339;28;20709;-73
2022/03/13 05:05:00;;;;;;;8.07;4.03;;;;;;;1.10;54.01;101342.63;5053219;28;20210;-74
2022/03/13 05:07:26;;;;;;;5.00;4.03;;;;;;;1.11;53.63;101339.25;5066039;28;20199;-72
2022/03/13 05:09:53;;;;;;;8.23;4.43;;;;;;;1.25;53.52;101348.81;5072403;28;20747;-73
2022/03/13 05:12:26;;;;;;;6.33;3.90;;;;;;;1.15;53.25;101317.38;5071260;28;20616;-73
2022/03/13 05:14:53;;;;;;;5.30;4.47;;;;;;;1.32;54.50;101355.25;5072012;28;20205;-73
2022/03/13 05:17:20;;;;;;;21.33;8.13;;;;;;;1.23;58.13;101331.59;5070669;28;20195;-73
2022/03/13 05:19:47;;;;;;;17.57;8.83;;;;;;;1.03;63.10;101350.59;5058363;28;20195;-73
2022/03/13 05:22:14;;;;;;;12.07;7.67;;;;;;;0.84;70.79;101355.13;5052378;28;20223;-73
2022/03/13 05:24:41;;;;;;;13.67;8.63;;;;;;;0.67;75.72;101351.34;5052247;28;20206;-73
2022/03/13 05:27:08;;;;;;;18.07;8.33;;;;;;;0.74;78.92;101345.03;5053029;28;20560;-73
2022/03/13 05:29:36;;;;;;;17.83;8.47;;;;;;;0.96;79.05;101353.50;5052296;28;20576;-73
2022/03/13 05:32:03;;;;;;;14.23;8.20;;;;;;;0.83;77.92;101332.91;5057615;28;20216;-73
2022/03/13 05:34:30;;;;;;;17.70;9.63;;;;;;;0.95;77.88;101337.28;5072719;28;20214;-73
2022/03/13 05:36:56;;;;;;;25.63;9.30;;;;;;;1.08;76.50;101358.56;5063818;28;20206;-73
2022/03/13 05:39:23;;;;;;;15.40;7.77;;;;;;;0.95;75.51;101346.59;5052807;28;20207;-73
2022/03/13 05:41:50;;;;;;;28.83;9.57;;;;;;;0.92;75.39;101369.34;5051025;28;20230;-73
2022/03/13 05:44:17;;;;;;;22.73;9.03;;;;;;;0.93;76.62;101368.56;5051870;28;20669;-73
2022/03/13 05:46:45;;;;;;;19.47;9.43;;;;;;;1.05;78.82;101364.34;5057424;28;20594;-73
2022/03/13 05:49:12;;;;;;;22.93;9.17;;;;;;;1.13;80.39;101372.59;5070987;28;20198;-73
2022/03/13 05:51:40;;;;;;;18.37;9.57;;;;;;;1.09;82.10;101366.38;5069363;28;20194;-73
2022/03/13 05:54:07;;;;;;;36.10;11.67;;;;;;;0.86;83.12;101323.81;5069451;28;20248;-73
2022/03/13 05:56:34;;;;;;;26.17;14.07;;;;;;;1.13;82.79;101368.38;5068234;28;20202;-74
2022/03/13 05:59:00;;;;;;;32.70;15.70;;;;;;;0.97;82.00;101375.66;5047938;28;20195;-72
2022/03/13 06:01:27;;;;;;;42.33;20.27;;;;;;;1.06;81.61;101376.34;5071587;28;20604;-74
2022/03/13 06:03:57;;;;;;;35.13;16.53;;;;;;;1.11;81.26;101362.25;5052831;28;20203;-74
2022/03/13 06:06:24;;;;;;;31.20;14.70;;;;;;;1.11;80.08;101358.78;5068019;28;20200;-74
2022/03/13 06:08:51;;;;;;;22.73;11.37;;;;;;;1.33;78.39;101377.47;5051368;28;20199;-74
2022/03/13 06:11:17;;;;;;;16.60;9.57;;;;;;;1.27;75.60;101366.81;5059727;28;20194;-74
2022/03/13 06:13:44;;;;;;;20.60;9.00;;;;;;;1.58;82.24;101375.88;5051073;28;20661;-74
2022/03/13 06:16:11;;;;;;;15.63;8.67;;;;;;;1.82;78.08;101379.31;5058653;28;20682;-76
2022/03/13 06:18:38;;;;;;;16.53;8.37;;;;;;;1.81;78.76;101380.06;5055511;28;20191;-78
2022/03/13 06:21:06;;;;;;;57.90;24.67;;;;;;;1.96;79.16;101358.13;5057476;28;20230;-73
2022/03/13 06:23:33;;;;;;;14.80;8.77;;;;;;;2.29;77.91;101386.03;5056444;28;20684;-74
2022/03/13 06:26:00;;;;;;;19.37;10.20;;;;;;;2.33;80.05;101377.78;5053627;28;20706;-74
2022/03/13 06:28:27;;;;;;;19.87;9.83;;;;;;;2.64;89.75;101367.91;5058348;28;20218;-72
2022/03/13 06:30:55;;;;;;;17.90;11.37;;;;;;;2.74;77.95;101361.75;5054862;28;20187;-73
2022/03/13 06:33:23;;;;;;;35.10;13.97;;;;;;;2.84;67.15;101374.38;5035696;28;20192;-75
2022/03/13 06:35:49;;;;;;;22.27;11.03;;;;;;;2.90;59.30;101369.66;5061919;28;20200;-75
2022/03/13 06:38:18;;;;;;;16.30;9.87;;;;;;;2.85;57.71;101359.09;5055055;28;20223;-73
2022/03/13 06:40:45;;;;;;;18.57;9.90;;;;;;;2.68;56.60;101361.34;5038983;28;20204;-73
2022/03/13 06:43:12;;;;;;;25.97;12.00;;;;;;;2.68;56.26;101333.16;5057885;28;20628;-76
2022/03/13 06:45:38;;;;;;;69.60;21.63;;;;;;;3.07;56.61;101369.09;5066952;28;20745;-73
2022/03/13 06:48:05;;;;;;;62.70;18.67;;;;;;;3.06;58.16;101375.00;5054917;28;20196;-73
2022/03/13 06:50:32;;;;;;;46.67;14.43;;;;;;;2.95;56.70;101365.75;5053058;28;20253;-74
2022/03/13 06:52:59;;;;;;;45.87;15.27;;;;;;;3.07;62.42;101371.63;5056497;28;20191;-74
2022/03/13 06:55:28;;;;;;;37.83;11.83;;;;;;;3.00;58.19;101379.72;5073163;28;20199;-73
2022/03/13 06:57:55;;;;;;;50.20;15.03;;;;;;;3.03;57.64;101371.38;5055392;28;20202;-76
2022/03/13 07:00:22;;;;;;;29.10;11.90;;;;;;;3.07;56.52;101373.34;5048692;28;20200;-74
2022/03/13 07:02:49;;;;;;;26.40;13.43;;;;;;;3.13;54.84;101377.19;5065108;28;20229;-73
2022/03/13 07:05:16;;;;;;;14.47;8.60;;;;;;;2.89;52.05;101384.13;5074225;28;20194;-76
2022/03/13 07:07:43;;;;;;;13.73;8.17;;;;;;;2.61;52.31;101377.06;5074623;28;20195;-74
2022/03/13 07:10:12;;;;;;;14.80;9.83;;;;;;;2.82;51.66;101384.50;5068986;28;20566;-74
2022/03/13 07:12:44;;;;;;;18.23;9.43;;;;;;;2.67;54.02;101362.13;5064701;28;20195;-73
2022/03/13 07:15:12;;;;;;;8.83;5.80;;;;;;;3.02;56.57;101372.16;5074757;28;20591;-75
2022/03/13 07:17:39;;;;;;;15.03;6.77;;;;;;;2.55;52.84;101343.38;5048843;28;20195;-74
2022/03/13 07:20:07;;;;;;;42.90;16.93;;;;;;;3.81;100.00;101375.56;5052247;28;20200;-71
2022/03/13 07:22:34;;;;;;;22.37;9.23;;;;;;;3.59;58.90;101395.50;5069202;28;20598;-75
2022/03/13 07:25:01;;;;;;;14.97;7.53;;;;;;;3.27;54.00;101391.78;5066167;28;20199;-71
2022/03/13 07:27:28;;;;;;;13.03;7.20;;;;;;;3.32;52.76;101392.94;5067870;28;20619;-72
2022/03/13 07:29:56;;;;;;;14.40;6.10;;;;;;;3.05;52.91;101367.22;5054416;28;20588;-73
2022/03/13 07:32:23;;;;;;;14.53;6.60;;;;;;;3.31;51.98;101391.19;5068056;28;20195;-72
2022/03/13 07:34:50;;;;;;;10.77;6.77;;;;;;;2.92;51.87;101345.06;5065122;28;20192;-74
2022/03/13 07:37:17;;;;;;;15.83;7.73;;;;;;;3.20;54.89;101366.56;5065133;28;20194;-75
2022/03/13 07:39:47;;;;;;;10.10;5.67;;;;;;;3.15;52.66;101392.66;5064891;28;20574;-74
2022/03/13 07:42:14;;;;;;;9.87;4.90;;;;;;;3.09;52.17;101394.81;5066419;28;20613;-72
2022/03/13 07:44:41;;;;;;;6.13;4.50;;;;;;;3.06;52.55;101390.38;5066430;28;20252;-71
2022/03/13 07:47:10;;;;;;;13.27;6.27;;;;;;;3.36;52.16;101392.38;5073022;28;20230;-73
2022/03/13 07:49:37;;;;;;;14.30;7.07;;;;;;;3.69;51.83;101392.75;5052979;28;20192;-71
2022/03/13 07:52:05;;;;;;;83.30;29.37;;;;;;;3.81;51.30;101390.97;5053306;28;20231;-70
2022/03/13 07:54:31;;;;;;;14.93;7.23;;;;;;;3.96;50.88;101394.47;5067626;28;20199;-72
2022/03/13 07:56:58;;;;;;;31.13;14.27;;;;;;;3.92;51.48;101392.53;5059495;28;20214;-75
2022/03/13 07:59:25;;;;;;;30.70;14.67;;;;;;;3.78;51.37;101367.69;5058738;28;20206;-77
2022/03/13 08:01:52;;;;;;;35.97;14.27;;;;;;;4.23;49.93;101396.19;5066587;28;20593;-74
2022/03/13 08:04:20;;;;;;;13.63;6.67;;;;;;;4.21;49.69;101379.78;5058963;28;20629;-76
2022/03/13 08:06:47;;;;;;;38.43;13.30;;;;;;;3.91;49.95;101354.81;5052786;28;20701;-72
2022/03/13 08:09:14;;;;;;;40.13;14.50;;;;;;;4.33;50.29;101392.47;5052732;28;20195;-73
2022/03/13 08:11:41;;;;;;;55.13;17.63;;;;;;;4.46;49.95;101395.88;5052231;28;20665;-74
2022/03/13 08:14:08;;;;;;;26.83;11.13;;;;;;;4.62;49.62;101392.56;5053287;28;20196;-74
2022/03/13 08:16:35;;;;;;;17.50;8.80;;;;;;;4.71;48.96;101387.94;5053227;28;20678;-76
2022/03/13 08:19:02;;;;;;;9.00;4.03;;;;;;;4.45;49.01;101382.97;5053499;28;20223;-74
2022/03/13 08:21:31;;;;;;;16.03;8.27;;;;;;;4.73;49.57;101390.63;5053370;28;20195;-75
2022/03/13 08:23:58;;;;;;;38.93;16.40;;;;;;;4.78;49.92;101381.50;5052841;28;20199;-75
2022/03/13 08:26:26;;;;;;;24.93;11.43;;;;;;;5.05;49.42;101379.63;5052679;28;20191;-74
2022/03/13 08:28:53;;;;;;;22.83;10.40;;;;;;;5.31;49.80;101382.91;5052382;28;20192;-75
2022/03/13 08:31:20;;;;;;;25.20;11.30;;;;;;;5.22;49.38;101356.66;5053326;28;20192;-73
2022/03/13 08:33:46;;;;;;;32.93;10.60;;;;;;;5.87;48.48;101342.34;5052250;28;20192;-75
2022/03/13 08:36:13;;;;;;;16.13;7.53;;;;;;;6.25;47.69;101370.09;5052457;28;20282;-74
2022/03/13 08:38:42;;;;;;;16.93;11.43;;;;;;;6.65;47.14;101369.59;5044491;28;20195;-74
2022/03/13 08:41:09;;;;;;;107.77;47.63;;;;;;;6.53;48.35;101363.84;5049431;28;20278;-72
2022/03/13 08:43:36;;;;;;;22.13;8.80;;;;;;;6.90;46.45;101364.88;5050700;28;20692;-73
2022/03/13 08:46:03;;;;;;;30.87;15.67;;;;;;;6.68;46.29;101351.72;5051187;28;20227;-74
2022/03/13 08:48:30;;;;;;;38.93;12.83;;;;;;;6.78;47.95;101370.28;5051973;28;20199;-75
2022/03/13 08:51:00;;;;;;;10.90;7.30;;;;;;;6.74;45.96;101373.53;5052476;28;20200;-73
2022/03/13 08:53:27;;;;;;;94.73;33.57;;;;;;;6.42;46.18;101364.13;5052393;28;20199;-71
2022/03/13 08:55:55;;;;;;;17.63;9.30;;;;;;;6.67;46.28;101366.28;5052058;28;20192;-72
2022/03/13 08:58:22;;;;;;;14.57;8.40;;;;;;;6.52;45.58;101362.06;5052353;28;20624;-73
2022/03/13 09:00:52;;;;;;;13.87;8.53;;;;;;;6.37;45.81;101370.75;5052372;28;20204;-73
2022/03/13 09:03:19;;;;;;;12.00;6.90;;;;;;;6.56;46.46;101366.56;5051758;28;20669;-72
2022/03/13 09:05:48;;;;;;;12.83;7.07;;;;;;;5.88;47.25;101371.53;5051684;28;20250;-71
2022/03/13 09:08:15;;;;;;;11.57;6.70;;;;;;;6.17;46.83;101353.34;5052537;28;20616;-76
2022/03/13 09:10:42;;;;;;;15.50;7.40;;;;;;;6.34;48.41;101360.31;5052154;28;20192;-74
2022/03/13 09:13:10;;;;;;;8.03;6.37;;;;;;;6.17;47.77;101362.81;5051544;28;20195;-72
2022/03/13 09:15:39;;;;;;;15.00;8.43;;;;;;;6.65;47.85;101362.75;5051492;28;20665;-77
2022/03/13 09:18:06;;;;;;;13.00;6.23;;;;;;;6.15;48.02;101356.66;5051309;28;20302;-73
2022/03/13 09:20:33;;;;;;;14.40;7.33;;;;;;;6.50;48.02;101359.38;5051340;28;20195;-74
2022/03/13 09:22:59;;;;;;;14.80;7.50;;;;;;;6.52;48.32;101356.91;5051715;28;20226;-75
2022/03/13 09:25:26;;;;;;;15.00;7.13;;;;;;;6.66;47.17;101331.03;5051986;28;20202;-72
2022/03/13 09:27:53;;;;;;;14.53;7.87;;;;;;;7.16;46.11;101358.44;5052855;28;20583;-71
2022/03/13 09:30:21;;;;;;;18.20;8.30;;;;;;;7.35;46.24;101355.91;5067381;28;20209;-74
2022/03/13 09:32:50;;;;;;;15.73;8.20;;;;;;;7.58;45.77;101355.34;5043594;28;20650;-73
2022/03/13 09:35:17;;;;;;;10.37;7.60;;;;;;;7.28;46.35;101354.75;5063860;28;20187;-72
2022/03/13 09:37:44;;;;;;;19.07;8.13;;;;;;;6.54;47.04;101293.44;5051168;28;20202;-72
2022/03/13 09:40:12;;;;;;;15.37;8.70;;;;;;;6.84;47.12;101343.97;5051803;28;20666;-74
2022/03/13 09:42:39;;;;;;;18.53;9.43;;;;;;;7.51;45.85;101352.38;5050821;28;20227;-73
2022/03/13 09:45:07;;;;;;;19.13;9.20;;;;;;;7.57;45.27;101350.97;5051235;28;20235;-74
2022/03/13 09:47:37;;;;;;;15.33;9.20;;;;;;;7.48;45.04;101351.44;5051186;28;20734;-72
2022/03/13 09:50:06;;;;;;;18.27;9.63;;;;;;;7.64;45.50;101354.72;5062579;28;20278;-74
2022/03/13 09:52:36;;;;;;;38.20;22.63;;;;;;;7.85;45.12;101358.31;5050606;28;20278;-73
2022/03/13 09:55:03;;;;;;;14.73;9.07;;;;;;;7.28;44.74;101349.59;5050538;28;20647;-72
2022/03/13 09:57:30;;;;;;;17.50;9.90;;;;;;;7.28;45.37;101347.00;5051038;28;20669;-74
2022/03/13 09:59:56;;;;;;;17.93;9.47;;;;;;;7.65;45.49;101328.09;5050777;28;20199;-73
2022/03/13 10:02:33;;;;;;;18.27;8.47;;;;;;;7.37;44.63;101272.66;5057364;28;20660;-74
2022/03/13 10:05:06;;;;;;;14.13;7.37;;;;;;;7.90;44.64;101342.22;5051459;28;20223;-73
2022/03/13 10:07:52;;;;;;;13.90;7.97;;;;;;;7.77;44.32;101339.00;5050859;28;20188;-72
2022/03/13 10:10:18;;;;;;;8.50;6.20;;;;;;;7.09;44.99;101331.47;5049443;28;20187;-73
2022/03/13 10:12:46;;;;;;;17.47;7.80;;;;;;;6.83;46.31;101306.09;5050481;28;20195;-73
2022/03/13 10:15:14;;;;;;;13.73;7.73;;;;;;;7.03;46.05;101351.78;5051360;28;20211;-74
2022/03/13 10:17:41;;;;;;;11.53;7.50;;;;;;;7.31;45.45;101347.16;5051719;28;20286;-74
2022/03/13 10:20:16;;;;;;;16.80;8.17;;;;;;;7.45;43.83;101347.84;5057394;28;20195;-74
2022/03/13 10:22:43;;;;;;;13.73;7.57;;;;;;;6.84;44.67;101333.66;5062598;28;20724;-73
2022/03/13 10:25:11;;;;;;;9.20;6.47;;;;;;;6.87;44.58;101313.16;5051295;28;20191;-72
2022/03/13 10:27:38;;;;;;;9.73;7.30;;;;;;;7.33;43.30;101337.81;5051391;28;20234;-72
2022/03/13 10:30:08;;;;;;;13.70;5.83;;;;;;;7.51;47.40;101336.91;5058680;28;20187;-69
2022/03/13 10:32:36;;;;;;;20.27;8.50;;;;;;;7.53;43.48;101335.31;5071301;28;20186;-72
2022/03/13 10:35:03;;;;;;;8.77;5.87;;;;;;;7.21;41.94;101321.72;5061399;28;20191;-73
2022/03/13 10:37:37;;;;;;;14.17;7.33;;;;;;;7.41;42.55;101344.22;5053403;28;20203;-73
2022/03/13 10:40:13;;;;;;;44.07;18.60;;;;;;;7.09;42.79;101335.75;5071025;28;20264;-71
2022/03/13 10:42:43;;;;;;;15.37;9.30;;;;;;;7.19;44.87;101330.22;5070226;28;20696;-73
2022/03/13 10:45:11;;;;;;;15.87;7.03;;;;;;;7.47;43.40;101334.19;5064682;28;20299;-73
2022/03/13 10:47:38;;;;;;;10.13;5.60;;;;;;;6.94;42.25;101331.59;5050793;28;20202;-74
2022/03/13 10:50:07;;;;;;;15.90;7.40;;;;;;;6.96;44.21;101329.06;5051170;28;20215;-72
2022/03/13 10:52:41;;;;;;;14.07;7.23;;;;;;;7.11;44.13;101324.69;5060096;28;20194;-75
2022/03/13 10:55:20;;;;;;;13.23;7.00;;;;;;;7.07;43.29;101304.69;5052481;28;20188;-73
2022/03/13 10:57:52;;;;;;;10.07;6.20;;;;;;;7.34;41.29;101328.38;5068483;28;20249;-73
2022/03/13 11:00:21;;;;;;;9.90;6.57;;;;;;;7.00;41.69;101284.59;5043441;28;20773;-74
2022/03/13 11:02:48;;;;;;;9.17;6.47;;;;;;;7.28;41.17;101328.94;5051376;28;20219;-73
2022/03/13 11:05:15;;;;;;;11.67;7.30;;;;;;;7.38;41.00;101323.41;5043963;28;20635;-72
2022/03/13 11:07:43;;;;;;;31.90;15.20;;;;;;;7.34;41.69;101316.38;5065610;28;20202;-73
2022/03/13 11:10:11;;;;;;;15.80;8.57;;;;;;;7.21;41.10;101310.53;5068607;28;20203;-72
2022/03/13 11:12:39;;;;;;;15.57;8.73;;;;;;;7.34;41.52;101313.78;5073427;28;20853;-72
2022/03/13 11:15:08;;;;;;;10.17;7.10;;;;;;;7.12;41.27;101310.97;5071153;28;20187;-72
2022/03/13 11:17:37;;;;;;;11.70;6.30;;;;;;;6.89;40.67;101290.91;5054464;28;20201;-72
2022/03/13 11:20:09;;;;;;;9.73;6.50;;;;;;;6.93;40.98;101304.03;5054639;28;20260;-72
2022/03/13 11:22:36;;;;;;;14.47;7.50;;;;;;;7.03;41.95;101309.66;5054089;28;20314;-72
2022/03/13 11:25:07;;;;;;;10.83;6.30;;;;;;;7.09;41.06;101300.53;5056816;28;20615;-72
2022/03/13 11:27:36;;;;;;;8.33;5.40;;;;;;;6.90;40.99;101277.22;5073594;28;20213;-73
2022/03/13 11:30:06;;;;;;;10.45;6.78;;;;;;;6.74;40.72;101290.19;5073271;28;20456;-74